createdAt,value
2023-09-08T00:01:40.473Z,55.87
2023-09-08T00:06:43.375Z,58.77
2023-09-08T00:11:46.107Z,66.69
2023-09-08T00:16:49.673Z,61.97
2023-09-08T00:21:52.817Z,55.35
2023-09-08T00:26:55.883Z,55.80
2023-09-08T00:31:58.701Z,57.96
2023-09-08T00:37:08.081Z,59.94
2023-09-08T00:42:10.846Z,67.60
2023-09-08T00:47:13.920Z,61.45
2023-09-08T00:52:17.043Z,55.33
2023-09-08T00:57:20.126Z,56.29
2023-09-08T01:02:23.721Z,57.53
2023-09-08T01:07:30.110Z,59.54
2023-09-08T01:12:34.407Z,67.81
2023-09-08T01:17:37.525Z,61.75
2023-09-08T01:23:05.628Z,55.10
2023-09-08T01:28:09.614Z,56.46
2023-09-08T01:33:13.129Z,57.64
2023-09-08T01:38:21.615Z,59.32
2023-09-08T01:43:36.339Z,68.03
2023-09-08T01:48:47.821Z,61.07
2023-09-08T01:53:51.808Z,54.97
2023-09-08T01:58:55.125Z,56.12
2023-09-08T02:03:57.908Z,58.22
2023-09-08T02:09:00.849Z,65.72
2023-09-08T02:14:04.375Z,59.77
2023-09-08T02:19:07.499Z,54.55
2023-09-08T02:24:11.236Z,56.58
2023-09-08T02:29:14.217Z,58.72
2023-09-08T02:34:17.479Z,66.91
2023-09-08T02:39:20.259Z,61.94
2023-09-08T02:44:24.225Z,54.66
2023-09-08T02:49:27.057Z,54.69
2023-09-08T02:54:29.948Z,57.55
2023-09-08T02:59:32.688Z,59.14
2023-09-08T03:04:35.487Z,67.84
2023-09-08T03:09:38.305Z,62.38
2023-09-08T03:14:41.100Z,55.08
2023-09-08T03:19:46.915Z,56.57
2023-09-08T03:24:49.823Z,57.81
2023-09-08T03:29:52.743Z,59.46
2023-09-08T03:34:55.477Z,68.21
2023-09-08T03:39:58.238Z,62.16
2023-09-08T03:45:01.261Z,55.37
2023-09-08T03:50:04.283Z,55.99
2023-09-08T03:55:07.371Z,57.87
2023-09-08T04:00:13.202Z,66.38
2023-09-08T04:05:17.547Z,61.34
2023-09-08T04:10:21.441Z,54.52
2023-09-08T04:15:24.384Z,56.18
2023-09-08T04:20:30.163Z,57.63
2023-09-08T04:25:32.880Z,59.45
2023-09-08T04:30:35.659Z,68.21
2023-09-08T04:35:38.445Z,61.98
2023-09-08T04:40:42.388Z,55.03
2023-09-08T04:45:45.187Z,55.19
2023-09-08T04:50:48.020Z,57.10
2023-09-08T04:55:52.043Z,59.53
2023-09-08T05:00:55.152Z,68.82
2023-09-08T05:05:58.326Z,62.85
2023-09-08T05:11:02.015Z,55.97
2023-09-08T05:16:12.875Z,56.13
2023-09-08T05:21:15.778Z,57.59
2023-09-08T05:26:18.633Z,60.14
2023-09-08T05:31:21.813Z,68.36
2023-09-08T05:36:24.613Z,61.65
2023-09-08T05:41:27.855Z,55.41
2023-09-08T05:46:31.148Z,57.01
2023-09-08T05:51:34.083Z,58.65
2023-09-08T05:56:38.439Z,59.94
2023-09-08T06:01:41.870Z,67.88
2023-09-08T06:06:45.004Z,61.64
2023-09-08T06:11:48.807Z,55.32
2023-09-08T06:16:51.744Z,56.61
2023-09-08T06:21:54.823Z,58.10
2023-09-08T06:26:58.168Z,59.99
2023-09-08T06:32:00.990Z,66.86
2023-09-08T06:37:04.208Z,59.00
2023-09-08T06:42:07.696Z,54.85
2023-09-08T06:47:19.144Z,56.28
2023-09-08T06:52:26.556Z,56.98
2023-09-08T06:57:30.146Z,57.84
2023-09-08T07:02:33.443Z,58.92
2023-09-08T07:07:38.735Z,59.69
2023-09-08T07:12:41.741Z,66.00
2023-09-08T07:17:44.976Z,56.80
2023-09-08T07:22:48.370Z,55.14
2023-09-08T07:27:53.835Z,57.96
2023-09-08T07:32:59.446Z,58.16
2023-09-08T07:38:03.240Z,59.39
2023-09-08T07:43:06.752Z,60.17
2023-09-08T07:48:10.055Z,60.83
2023-09-08T07:53:13.621Z,61.03
2023-09-08T07:58:23.367Z,60.70
2023-09-08T08:03:26.428Z,60.64
2023-09-08T08:08:29.816Z,60.28
2023-09-08T08:13:33.055Z,60.38
2023-09-08T08:18:37.032Z,60.37
2023-09-08T08:23:45.471Z,60.24
2023-09-08T08:28:54.811Z,60.06
2023-09-08T08:34:04.597Z,59.41
2023-09-08T08:39:07.873Z,58.71
2023-09-08T08:44:11.056Z,58.52
2023-09-08T08:49:17.281Z,57.95
2023-09-08T08:54:21.666Z,57.16
2023-09-08T08:59:25.233Z,56.33
2023-09-08T09:04:36.339Z,55.29
2023-09-08T09:09:41.811Z,54.50
2023-09-08T09:15:09.319Z,53.98
2023-09-08T09:20:18.813Z,53.66
2023-09-08T09:25:35.451Z,53.55
2023-09-08T09:30:52.745Z,52.96
2023-09-08T09:35:58.699Z,51.88
2023-09-08T09:41:05.602Z,50.85
2023-09-08T09:46:10.311Z,49.59
2023-09-08T09:51:21.729Z,49.11
2023-09-08T09:56:25.771Z,48.29
2023-09-08T10:01:31.189Z,47.13
2023-09-08T10:06:39.124Z,46.60
2023-09-08T10:11:52.591Z,46.53
2023-09-08T10:17:00.922Z,46.39
2023-09-08T10:22:07.719Z,45.96
2023-09-08T10:27:14.150Z,45.52
2023-09-08T10:32:19.345Z,45.41
2023-09-08T10:37:32.215Z,45.28
2023-09-08T10:42:41.882Z,45.43
2023-09-08T10:47:48.421Z,44.96
2023-09-08T10:53:12.103Z,44.19
2023-09-08T10:58:44.165Z,43.51
2023-09-08T11:03:58.485Z,43.78
2023-09-08T11:09:08.669Z,43.95
2023-09-08T11:14:11.680Z,43.33
2023-09-08T11:19:14.562Z,42.61
2023-09-08T11:24:19.379Z,42.60
2023-09-08T11:29:22.240Z,42.26
2023-09-08T11:34:25.349Z,42.87
2023-09-08T11:39:28.118Z,41.41
2023-09-08T11:44:31.402Z,41.61
2023-09-08T11:49:36.434Z,41.75
2023-09-08T11:54:51.851Z,41.45
2023-09-08T12:00:01.125Z,41.24
2023-09-08T12:05:04.450Z,40.92
2023-09-08T12:10:14.173Z,41.01
2023-09-08T12:15:37.640Z,40.55
2023-09-08T12:20:43.603Z,39.87
2023-09-08T12:25:49.070Z,39.72
2023-09-08T12:30:52.691Z,38.87
2023-09-08T12:35:55.852Z,38.95
2023-09-08T12:40:58.888Z,38.39
2023-09-08T12:46:04.316Z,37.41
2023-09-08T12:51:07.224Z,37.05
2023-09-08T12:56:10.087Z,36.61
2023-09-08T13:01:12.903Z,35.41
2023-09-08T13:06:15.849Z,34.12
2023-09-08T13:11:18.742Z,33.71
2023-09-08T13:16:21.787Z,34.30
2023-09-08T13:21:25.921Z,35.19
2023-09-08T13:26:28.918Z,35.65
2023-09-08T13:31:31.900Z,34.96
2023-09-08T13:36:35.294Z,34.44
2023-09-08T13:42:07.612Z,35.12
2023-09-08T13:47:10.704Z,36.72
2023-09-08T13:52:15.767Z,37.34
2023-09-08T13:57:22.137Z,37.79
2023-09-08T14:02:41.901Z,38.56
2023-09-08T14:07:47.252Z,39.19
2023-09-08T14:12:57.892Z,39.79
2023-09-08T14:18:00.798Z,40.19
2023-09-08T14:23:03.836Z,40.35
2023-09-08T14:28:07.441Z,39.50
2023-09-08T14:33:10.533Z,39.19
2023-09-08T14:38:17.642Z,39.22
2023-09-08T14:43:20.806Z,39.79
2023-09-08T14:48:23.838Z,39.19
2023-09-08T14:53:29.167Z,36.30
2023-09-08T14:58:35.371Z,34.00
2023-09-08T15:03:38.683Z,31.33
2023-09-08T15:08:47.194Z,30.00
2023-09-08T15:13:50.050Z,28.46
2023-09-08T15:18:52.923Z,27.08
2023-09-08T15:23:56.303Z,25.73
2023-09-08T15:29:00.347Z,25.83
2023-09-08T15:34:03.159Z,26.56
2023-09-08T15:39:06.032Z,27.24
2023-09-08T15:44:08.868Z,29.55
2023-09-08T15:49:11.650Z,31.12
2023-09-08T15:54:14.480Z,30.81
2023-09-08T15:59:18.165Z,30.19
2023-09-08T16:04:22.161Z,29.96
2023-09-08T16:09:25.420Z,29.39
2023-09-08T16:14:28.219Z,28.79
2023-09-08T16:19:30.984Z,29.80
2023-09-08T16:24:33.739Z,29.56
2023-09-08T16:29:36.484Z,30.29
2023-09-08T16:34:39.287Z,31.93
2023-09-08T16:39:42.173Z,33.77
2023-09-08T16:44:46.151Z,35.28
2023-09-08T16:49:49.199Z,36.45
2023-09-08T16:54:52.108Z,37.80
2023-09-08T16:59:54.865Z,38.96
2023-09-08T17:04:57.631Z,40.20
2023-09-08T17:10:00.604Z,41.34
2023-09-08T17:15:04.123Z,42.33
2023-09-08T17:20:08.086Z,43.15
2023-09-08T17:25:12.581Z,43.76
2023-09-08T17:30:15.393Z,44.53
2023-09-08T17:35:18.325Z,45.11
2023-09-08T17:40:21.281Z,45.54
2023-09-08T17:45:24.474Z,46.00
2023-09-08T17:50:27.826Z,46.37
2023-09-08T17:55:30.825Z,46.89
2023-09-08T18:00:33.664Z,47.45
2023-09-08T18:05:37.457Z,47.78
2023-09-08T18:10:43.340Z,48.32
2023-09-08T18:15:46.183Z,48.66
2023-09-08T18:20:48.962Z,49.09
2023-09-08T18:25:53.792Z,49.40
2023-09-08T18:30:57.501Z,49.66
2023-09-08T18:36:00.457Z,50.21
2023-09-08T18:41:03.784Z,50.47
2023-09-08T18:46:07.164Z,50.94
2023-09-08T18:51:10.025Z,51.20
2023-09-08T18:56:15.074Z,51.42
2023-09-08T19:01:17.848Z,51.70
2023-09-08T19:06:20.899Z,52.07
2023-09-08T19:11:23.715Z,52.54
2023-09-08T19:16:26.568Z,52.86
2023-09-08T19:21:29.784Z,53.26
2023-09-08T19:26:32.633Z,53.37
2023-09-08T19:31:35.361Z,54.01
2023-09-08T19:36:41.299Z,54.32
2023-09-08T19:41:44.222Z,54.84
2023-09-08T19:46:47.006Z,55.22
2023-09-08T19:51:49.794Z,55.33
2023-09-08T19:56:52.741Z,55.95
2023-09-08T20:01:55.571Z,56.56
2023-09-08T20:06:58.571Z,56.42
2023-09-08T20:12:01.447Z,56.79
2023-09-08T20:17:05.098Z,57.48
2023-09-08T20:22:08.399Z,58.15
2023-09-08T20:27:11.947Z,59.18
2023-09-08T20:32:16.050Z,59.43
2023-09-08T20:37:18.938Z,59.86
2023-09-08T20:42:21.764Z,59.46
2023-09-08T20:47:24.533Z,59.82
2023-09-08T20:52:28.291Z,60.56
2023-09-08T20:57:31.699Z,60.73
2023-09-08T21:02:34.522Z,61.12
2023-09-08T21:07:37.377Z,70.12
2023-09-08T21:12:40.160Z,63.55
2023-09-08T21:17:42.980Z,55.42
2023-09-08T21:22:45.710Z,55.45
2023-09-08T21:27:48.440Z,56.53
2023-09-08T21:32:51.318Z,57.22
2023-09-08T21:37:54.205Z,59.00
2023-09-08T21:42:58.147Z,60.10
2023-09-08T21:48:01.027Z,68.32
2023-09-08T21:53:04.224Z,63.71
2023-09-08T21:58:06.997Z,55.81
2023-09-08T22:03:10.688Z,55.33
2023-09-08T22:08:13.634Z,56.89
2023-09-08T22:13:16.416Z,58.64
2023-09-08T22:18:19.224Z,59.58
2023-09-08T22:23:22.122Z,68.06
2023-09-08T22:28:24.905Z,63.01
2023-09-08T22:33:27.962Z,55.37
2023-09-08T22:38:32.056Z,54.38
2023-09-08T22:43:35.194Z,56.46
2023-09-08T22:48:38.337Z,57.63
2023-09-08T22:53:41.147Z,59.19
2023-09-08T22:58:43.978Z,67.75
2023-09-08T23:03:46.848Z,62.95
2023-09-08T23:08:49.695Z,55.36
2023-09-08T23:13:53.740Z,54.69
2023-09-08T23:18:58.749Z,56.72
2023-09-08T23:24:01.490Z,58.09
2023-09-08T23:29:11.559Z,60.22
2023-09-08T23:34:14.919Z,68.71
2023-09-08T23:39:19.270Z,62.59
2023-09-08T23:44:23.691Z,55.52
2023-09-08T23:49:26.554Z,55.41
2023-09-08T23:54:29.353Z,57.61
2023-09-08T23:59:32.201Z,59.07
